sensor_id;sensor_type;location;lat;lon;timestamp;noise_LAeq;noise_LA_min;noise_LA_max;noise_LA01;noise_LA95
17594;Laerm;8916;47.086;15.920;2023-11-19T00:01:26;49.38;48.36;50.51;;
17594;Laerm;8916;47.086;15.920;2023-11-19T00:03:57;49.38;48.37;50.47;;
17594;Laerm;8916;47.086;15.920;2023-11-19T00:06:27;49.38;48.31;50.58;;
17594;Laerm;8916;47.086;15.920;2023-11-19T00:08:56;49.38;48.28;50.48;;
17594;Laerm;8916;47.086;15.920;2023-11-19T00:11:26;49.38;48.36;50.45;;
17594;Laerm;8916;47.086;15.920;2023-11-19T00:13:55;49.39;48.36;50.68;;
17594;Laerm;8916;47.086;15.920;2023-11-19T00:16:24;49.39;48.26;50.41;;
17594;Laerm;8916;47.086;15.920;2023-11-19T00:18:54;49.37;48.28;50.49;;
17594;Laerm;8916;47.086;15.920;2023-11-19T00:21:25;49.38;47.96;50.62;;
17594;Laerm;8916;47.086;15.920;2023-11-19T00:23:56;49.37;48.34;50.44;;
17594;Laerm;8916;47.086;15.920;2023-11-19T00:26:26;49.37;48.48;50.43;;
17594;Laerm;8916;47.086;15.920;2023-11-19T00:28:57;49.38;48.19;50.47;;
17594;Laerm;8916;47.086;15.920;2023-11-19T00:31:27;49.37;48.25;50.64;;
17594;Laerm;8916;47.086;15.920;2023-11-19T00:33:58;49.38;48.39;50.41;;
17594;Laerm;8916;47.086;15.920;2023-11-19T00:36:28;49.37;48.13;50.52;;
17594;Laerm;8916;47.086;15.920;2023-11-19T00:38:58;49.36;48.16;50.46;;
17594;Laerm;8916;47.086;15.920;2023-11-19T00:41:28;49.38;48.29;50.51;;
17594;Laerm;8916;47.086;15.920;2023-11-19T00:43:57;49.37;48.37;50.41;;
17594;Laerm;8916;47.086;15.920;2023-11-19T00:46:27;49.37;48.22;50.65;;
17594;Laerm;8916;47.086;15.920;2023-11-19T00:48:57;49.38;48.31;50.42;;
17594;Laerm;8916;47.086;15.920;2023-11-19T00:51:29;49.37;48.37;50.45;;
17594;Laerm;8916;47.086;15.920;2023-11-19T00:53:59;49.36;47.98;50.46;;
17594;Laerm;8916;47.086;15.920;2023-11-19T00:56:29;49.37;48.20;50.48;;
17594;Laerm;8916;47.086;15.920;2023-11-19T00:58:58;49.36;48.08;50.46;;
17594;Laerm;8916;47.086;15.920;2023-11-19T01:01:28;49.38;48.23;50.43;;
17594;Laerm;8916;47.086;15.920;2023-11-19T01:03:57;49.37;48.42;50.66;;
17594;Laerm;8916;47.086;15.920;2023-11-19T01:06:29;49.37;48.25;50.49;;
17594;Laerm;8916;47.086;15.920;2023-11-19T01:08:59;49.36;48.16;50.47;;
17594;Laerm;8916;47.086;15.920;2023-11-19T01:11:28;49.37;48.29;50.53;;
17594;Laerm;8916;47.086;15.920;2023-11-19T01:13:58;49.36;48.15;50.59;;
17594;Laerm;8916;47.086;15.920;2023-11-19T01:16:27;49.36;48.29;50.65;;
17594;Laerm;8916;47.086;15.920;2023-11-19T01:18:57;49.36;48.31;50.60;;
17594;Laerm;8916;47.086;15.920;2023-11-19T01:21:45;49.37;48.10;50.48;;
17594;Laerm;8916;47.086;15.920;2023-11-19T01:24:15;49.37;48.31;50.60;;
17594;Laerm;8916;47.086;15.920;2023-11-19T01:26:44;49.36;48.44;50.46;;
17594;Laerm;8916;47.086;15.920;2023-11-19T01:29:15;49.37;47.98;50.69;;
17594;Laerm;8916;47.086;15.920;2023-11-19T01:31:46;49.36;48.29;50.49;;
17594;Laerm;8916;47.086;15.920;2023-11-19T01:34:15;49.36;48.21;50.47;;
17594;Laerm;8916;47.086;15.920;2023-11-19T01:36:47;49.37;48.23;50.71;;
17594;Laerm;8916;47.086;15.920;2023-11-19T01:39:17;49.37;48.20;50.40;;
17594;Laerm;8916;47.086;15.920;2023-11-19T01:41:48;49.37;48.36;50.49;;
17594;Laerm;8916;47.086;15.920;2023-11-19T01:44:17;49.37;48.32;50.65;;
17594;Laerm;8916;47.086;15.920;2023-11-19T01:46:47;49.37;48.40;50.36;;
17594;Laerm;8916;47.086;15.920;2023-11-19T01:49:17;49.37;48.40;50.44;;
17594;Laerm;8916;47.086;15.920;2023-11-19T01:51:49;49.37;48.25;50.54;;
17594;Laerm;8916;47.086;15.920;2023-11-19T01:54:19;49.38;48.29;50.51;;
17594;Laerm;8916;47.086;15.920;2023-11-19T01:56:48;49.35;48.20;50.64;;
17594;Laerm;8916;47.086;15.920;2023-11-19T01:59:17;49.36;48.39;50.42;;
17594;Laerm;8916;47.086;15.920;2023-11-19T02:01:54;49.36;48.31;50.47;;
17594;Laerm;8916;47.086;15.920;2023-11-19T02:04:27;49.36;48.21;50.99;;
17594;Laerm;8916;47.086;15.920;2023-11-19T02:06:59;49.36;47.81;50.35;;
17594;Laerm;8916;47.086;15.920;2023-11-19T02:09:29;49.36;48.08;50.45;;
17594;Laerm;8916;47.086;15.920;2023-11-19T02:11:58;49.37;48.20;50.52;;
17594;Laerm;8916;47.086;15.920;2023-11-19T02:14:27;49.37;48.21;50.61;;
17594;Laerm;8916;47.086;15.920;2023-11-19T02:16:56;49.36;48.29;50.55;;
17594;Laerm;8916;47.086;15.920;2023-11-19T02:19:25;49.37;48.15;50.59;;
17594;Laerm;8916;47.086;15.920;2023-11-19T02:21:55;49.37;48.29;50.45;;
17594;Laerm;8916;47.086;15.920;2023-11-19T02:24:28;49.37;48.42;50.56;;
17594;Laerm;8916;47.086;15.920;2023-11-19T02:27:05;49.37;48.13;50.47;;
17594;Laerm;8916;47.086;15.920;2023-11-19T02:29:39;49.36;48.28;50.44;;
17594;Laerm;8916;47.086;15.920;2023-11-19T02:32:08;49.36;48.03;50.56;;
17594;Laerm;8916;47.086;15.920;2023-11-19T02:34:37;49.37;48.37;50.53;;
17594;Laerm;8916;47.086;15.920;2023-11-19T02:37:07;49.37;48.36;50.68;;
17594;Laerm;8916;47.086;15.920;2023-11-19T02:39:36;49.36;48.26;50.58;;
17594;Laerm;8916;47.086;15.920;2023-11-19T02:42:06;49.38;48.37;50.56;;
17594;Laerm;8916;47.086;15.920;2023-11-19T02:44:36;49.38;48.43;50.28;;
17594;Laerm;8916;47.086;15.920;2023-11-19T02:47:07;49.38;48.38;50.44;;
17594;Laerm;8916;47.086;15.920;2023-11-19T02:49:36;49.37;48.42;50.43;;
17594;Laerm;8916;47.086;15.920;2023-11-19T02:52:07;49.38;48.25;50.53;;
17594;Laerm;8916;47.086;15.920;2023-11-19T02:54:38;49.37;48.21;50.50;;
17594;Laerm;8916;47.086;15.920;2023-11-19T02:57:07;49.38;48.28;50.56;;
17594;Laerm;8916;47.086;15.920;2023-11-19T02:59:49;49.38;48.26;50.48;;
17594;Laerm;8916;47.086;15.920;2023-11-19T03:02:19;49.38;48.10;50.55;;
17594;Laerm;8916;47.086;15.920;2023-11-19T03:04:50;49.38;48.36;50.59;;
17594;Laerm;8916;47.086;15.920;2023-11-19T03:07:19;49.38;48.26;50.68;;
17594;Laerm;8916;47.086;15.920;2023-11-19T03:09:49;49.37;48.05;50.46;;
17594;Laerm;8916;47.086;15.920;2023-11-19T03:12:18;49.38;48.23;50.42;;
17594;Laerm;8916;47.086;15.920;2023-11-19T03:14:47;49.37;48.34;50.47;;
17594;Laerm;8916;47.086;15.920;2023-11-19T03:17:19;49.37;48.37;50.39;;
17594;Laerm;8916;47.086;15.920;2023-11-19T03:19:49;49.38;48.42;50.49;;
17594;Laerm;8916;47.086;15.920;2023-11-19T03:22:18;49.37;48.29;50.42;;
17594;Laerm;8916;47.086;15.920;2023-11-19T03:24:50;49.38;47.77;50.54;;
17594;Laerm;8916;47.086;15.920;2023-11-19T03:27:20;49.36;48.20;50.62;;
17594;Laerm;8916;47.086;15.920;2023-11-19T03:29:49;49.37;47.90;50.56;;
17594;Laerm;8916;47.086;15.920;2023-11-19T03:32:19;49.37;48.20;50.47;;
17594;Laerm;8916;47.086;15.920;2023-11-19T03:34:49;49.36;48.21;50.38;;
17594;Laerm;8916;47.086;15.920;2023-11-19T03:37:18;49.36;47.98;50.46;;
17594;Laerm;8916;47.086;15.920;2023-11-19T03:39:47;49.36;48.37;50.35;;
17594;Laerm;8916;47.086;15.920;2023-11-19T03:42:16;49.36;48.18;50.49;;
17594;Laerm;8916;47.086;15.920;2023-11-19T03:44:45;49.36;48.15;50.59;;
17594;Laerm;8916;47.086;15.920;2023-11-19T03:47:15;49.37;48.35;50.57;;
17594;Laerm;8916;47.086;15.920;2023-11-19T03:49:48;49.36;48.10;50.40;;
17594;Laerm;8916;47.086;15.920;2023-11-19T03:52:18;49.37;48.21;50.36;;
17594;Laerm;8916;47.086;15.920;2023-11-19T03:54:48;49.36;48.36;50.60;;
17594;Laerm;8916;47.086;15.920;2023-11-19T03:57:17;49.36;48.36;50.62;;
17594;Laerm;8916;47.086;15.920;2023-11-19T03:59:46;49.37;48.29;50.36;;
17594;Laerm;8916;47.086;15.920;2023-11-19T04:02:16;49.37;48.02;50.47;;
17594;Laerm;8916;47.086;15.920;2023-11-19T04:04:45;49.35;48.15;50.48;;
17594;Laerm;8916;47.086;15.920;2023-11-19T04:07:16;49.36;48.25;50.52;;
17594;Laerm;8916;47.086;15.920;2023-11-19T04:09:45;49.36;48.13;50.45;;
17594;Laerm;8916;47.086;15.920;2023-11-19T04:12:14;49.36;48.25;50.35;;
17594;Laerm;8916;47.086;15.920;2023-11-19T04:14:43;49.37;48.25;50.55;;
17594;Laerm;8916;47.086;15.920;2023-11-19T04:17:13;49.35;48.25;50.40;;
17594;Laerm;8916;47.086;15.920;2023-11-19T04:19:42;49.36;48.32;50.47;;
17594;Laerm;8916;47.086;15.920;2023-11-19T04:22:11;49.36;48.32;50.40;;
17594;Laerm;8916;47.086;15.920;2023-11-19T04:24:41;49.36;48.18;50.37;;
17594;Laerm;8916;47.086;15.920;2023-11-19T04:27:11;49.36;48.13;50.46;;
17594;Laerm;8916;47.086;15.920;2023-11-19T04:29:41;49.36;48.26;50.60;;
17594;Laerm;8916;47.086;15.920;2023-11-19T04:32:10;49.36;48.00;50.43;;
17594;Laerm;8916;47.086;15.920;2023-11-19T04:34:39;49.36;48.20;50.35;;
17594;Laerm;8916;47.086;15.920;2023-11-19T04:37:09;49.35;48.18;50.42;;
17594;Laerm;8916;47.086;15.920;2023-11-19T04:39:44;49.36;48.25;50.59;;
17594;Laerm;8916;47.086;15.920;2023-11-19T04:42:14;49.35;48.31;50.44;;
17594;Laerm;8916;47.086;15.920;2023-11-19T04:44:45;49.35;48.28;50.41;;
17594;Laerm;8916;47.086;15.920;2023-11-19T04:47:14;49.36;47.77;50.61;;
17594;Laerm;8916;47.086;15.920;2023-11-19T04:49:43;49.36;48.31;50.36;;
17594;Laerm;8916;47.086;15.920;2023-11-19T04:52:12;49.35;48.28;50.56;;
17594;Laerm;8916;47.086;15.920;2023-11-19T04:54:43;49.37;48.05;50.39;;
17594;Laerm;8916;47.086;15.920;2023-11-19T04:57:13;49.35;48.07;50.44;;
17594;Laerm;8916;47.086;15.920;2023-11-19T04:59:42;49.37;48.36;50.52;;
17594;Laerm;8916;47.086;15.920;2023-11-19T05:02:11;49.36;48.26;50.64;;
17594;Laerm;8916;47.086;15.920;2023-11-19T05:04:43;49.36;48.40;50.44;;
17594;Laerm;8916;47.086;15.920;2023-11-19T05:07:15;49.36;48.24;50.49;;
17594;Laerm;8916;47.086;15.920;2023-11-19T05:09:45;49.35;48.23;50.47;;
17594;Laerm;8916;47.086;15.920;2023-11-19T05:12:14;49.35;48.31;50.50;;
17594;Laerm;8916;47.086;15.920;2023-11-19T05:14:43;49.35;48.32;50.49;;
17594;Laerm;8916;47.086;15.920;2023-11-19T05:17:18;49.35;48.31;50.63;;
17594;Laerm;8916;47.086;15.920;2023-11-19T05:19:47;49.36;48.25;50.40;;
17594;Laerm;8916;47.086;15.920;2023-11-19T05:22:17;49.36;48.20;50.56;;
17594;Laerm;8916;47.086;15.920;2023-11-19T05:24:47;49.36;48.31;50.40;;
17594;Laerm;8916;47.086;15.920;2023-11-19T05:27:17;49.37;48.37;50.46;;
17594;Laerm;8916;47.086;15.920;2023-11-19T05:29:46;49.36;48.26;50.36;;
17594;Laerm;8916;47.086;15.920;2023-11-19T05:32:16;49.36;48.36;50.49;;
17594;Laerm;8916;47.086;15.920;2023-11-19T05:34:45;49.36;48.18;50.43;;
17594;Laerm;8916;47.086;15.920;2023-11-19T05:37:17;49.36;48.20;50.48;;
17594;Laerm;8916;47.086;15.920;2023-11-19T05:39:48;49.37;48.00;50.49;;
17594;Laerm;8916;47.086;15.920;2023-11-19T05:42:17;49.37;48.32;50.56;;
17594;Laerm;8916;47.086;15.920;2023-11-19T05:44:46;49.37;48.21;50.46;;
17594;Laerm;8916;47.086;15.920;2023-11-19T05:47:15;49.36;48.26;50.47;;
17594;Laerm;8916;47.086;15.920;2023-11-19T05:49:45;49.36;48.08;50.61;;
17594;Laerm;8916;47.086;15.920;2023-11-19T05:52:14;49.36;48.34;50.52;;
17594;Laerm;8916;47.086;15.920;2023-11-19T05:54:42;49.37;48.39;50.56;;
17594;Laerm;8916;47.086;15.920;2023-11-19T05:57:12;49.36;48.39;50.34;;
17594;Laerm;8916;47.086;15.920;2023-11-19T05:59:41;49.36;48.29;50.49;;
17594;Laerm;8916;47.086;15.920;2023-11-19T06:02:11;49.35;48.39;50.65;;
17594;Laerm;8916;47.086;15.920;2023-11-19T06:04:40;49.36;48.21;50.43;;
17594;Laerm;8916;47.086;15.920;2023-11-19T06:07:11;49.35;48.29;50.55;;
17594;Laerm;8916;47.086;15.920;2023-11-19T06:09:41;49.37;48.21;50.40;;
17594;Laerm;8916;47.086;15.920;2023-11-19T06:12:11;49.36;48.21;50.58;;
17594;Laerm;8916;47.086;15.920;2023-11-19T06:14:41;49.36;48.25;50.33;;
17594;Laerm;8916;47.086;15.920;2023-11-19T06:17:11;49.36;48.21;50.28;;
17594;Laerm;8916;47.086;15.920;2023-11-19T06:19:40;49.36;48.29;50.50;;
17594;Laerm;8916;47.086;15.920;2023-11-19T06:22:09;49.36;48.31;50.66;;
17594;Laerm;8916;47.086;15.920;2023-11-19T06:24:38;49.36;48.20;50.39;;
17594;Laerm;8916;47.086;15.920;2023-11-19T06:27:08;49.35;48.29;50.40;;
17594;Laerm;8916;47.086;15.920;2023-11-19T06:29:39;49.36;48.28;50.43;;
17594;Laerm;8916;47.086;15.920;2023-11-19T06:32:09;49.36;48.31;50.46;;
17594;Laerm;8916;47.086;15.920;2023-11-19T06:34:41;49.35;48.18;50.55;;
17594;Laerm;8916;47.086;15.920;2023-11-19T06:37:11;49.36;48.29;50.51;;
17594;Laerm;8916;47.086;15.920;2023-11-19T06:39:40;49.35;48.36;50.47;;
17594;Laerm;8916;47.086;15.920;2023-11-19T06:42:09;49.35;48.26;50.53;;
17594;Laerm;8916;47.086;15.920;2023-11-19T06:44:40;49.35;48.36;50.39;;
17594;Laerm;8916;47.086;15.920;2023-11-19T06:47:09;49.35;48.23;50.45;;
17594;Laerm;8916;47.086;15.920;2023-11-19T06:49:38;49.35;48.13;50.76;;
17594;Laerm;8916;47.086;15.920;2023-11-19T06:52:07;49.34;48.32;50.54;;
17594;Laerm;8916;47.086;15.920;2023-11-19T06:54:38;49.34;48.20;50.36;;
17594;Laerm;8916;47.086;15.920;2023-11-19T06:57:07;49.33;48.29;50.47;;
17594;Laerm;8916;47.086;15.920;2023-11-19T06:59:37;49.34;48.25;50.49;;
17594;Laerm;8916;47.086;15.920;2023-11-19T07:02:08;49.34;48.13;50.36;;
17594;Laerm;8916;47.086;15.920;2023-11-19T07:04:37;49.33;48.25;50.49;;
17594;Laerm;8916;47.086;15.920;2023-11-19T07:07:06;49.33;48.25;50.55;;
17594;Laerm;8916;47.086;15.920;2023-11-19T07:09:36;49.33;48.13;50.68;;
17594;Laerm;8916;47.086;15.920;2023-11-19T07:12:06;49.33;48.20;50.48;;
17594;Laerm;8916;47.086;15.920;2023-11-19T07:14:35;49.33;48.18;50.51;;
17594;Laerm;8916;47.086;15.920;2023-11-19T07:17:04;49.33;48.22;50.32;;
17594;Laerm;8916;47.086;15.920;2023-11-19T07:19:35;49.32;48.26;50.37;;
17594;Laerm;8916;47.086;15.920;2023-11-19T07:22:06;49.32;48.26;50.40;;
17594;Laerm;8916;47.086;15.920;2023-11-19T07:24:35;49.32;48.15;50.53;;
17594;Laerm;8916;47.086;15.920;2023-11-19T07:27:04;49.32;48.18;50.46;;
17594;Laerm;8916;47.086;15.920;2023-11-19T07:29:34;49.33;48.15;50.39;;
17594;Laerm;8916;47.086;15.920;2023-11-19T07:32:06;49.32;48.18;50.31;;
17594;Laerm;8916;47.086;15.920;2023-11-19T07:34:37;49.32;48.20;50.51;;
17594;Laerm;8916;47.086;15.920;2023-11-19T07:37:07;49.32;48.28;50.45;;
17594;Laerm;8916;47.086;15.920;2023-11-19T07:39:36;49.31;48.18;50.37;;
17594;Laerm;8916;47.086;15.920;2023-11-19T07:42:09;49.32;48.25;50.43;;
17594;Laerm;8916;47.086;15.920;2023-11-19T07:44:38;49.31;48.25;50.56;;
17594;Laerm;8916;47.086;15.920;2023-11-19T07:47:07;49.32;48.12;50.37;;
17594;Laerm;8916;47.086;15.920;2023-11-19T07:49:38;49.31;48.26;50.31;;
17594;Laerm;8916;47.086;15.920;2023-11-19T07:52:07;49.30;48.29;50.36;;
17594;Laerm;8916;47.086;15.920;2023-11-19T07:54:48;49.30;48.28;50.29;;
17594;Laerm;8916;47.086;15.920;2023-11-19T07:57:17;49.29;48.07;50.45;;
17594;Laerm;8916;47.086;15.920;2023-11-19T07:59:47;49.29;48.15;50.51;;
17594;Laerm;8916;47.086;15.920;2023-11-19T08:02:17;49.29;48.26;50.68;;
17594;Laerm;8916;47.086;15.920;2023-11-19T08:04:48;49.30;48.08;50.45;;
17594;Laerm;8916;47.086;15.920;2023-11-19T08:07:19;49.29;48.23;50.42;;
17594;Laerm;8916;47.086;15.920;2023-11-19T08:09:48;49.28;48.20;50.32;;
17594;Laerm;8916;47.086;15.920;2023-11-19T08:12:18;49.26;48.05;50.33;;
17594;Laerm;8916;47.086;15.920;2023-11-19T08:14:48;49.24;48.23;50.26;;
17594;Laerm;8916;47.086;15.920;2023-11-19T08:17:17;49.20;47.98;50.22;;
17594;Laerm;8916;47.086;15.920;2023-11-19T08:19:48;49.22;48.08;50.26;;
17594;Laerm;8916;47.086;15.920;2023-11-19T08:22:17;49.24;48.20;50.20;;
17594;Laerm;8916;47.086;15.920;2023-11-19T08:24:46;49.25;48.23;50.33;;
17594;Laerm;8916;47.086;15.920;2023-11-19T08:27:15;49.27;48.12;50.61;;
17594;Laerm;8916;47.086;15.920;2023-11-19T08:29:45;49.27;48.21;50.29;;
17594;Laerm;8916;47.086;15.920;2023-11-19T08:32:14;49.27;48.03;50.53;;
17594;Laerm;8916;47.086;15.920;2023-11-19T08:34:43;49.27;48.15;50.34;;
17594;Laerm;8916;47.086;15.920;2023-11-19T08:37:14;49.27;48.15;50.20;;
17594;Laerm;8916;47.086;15.920;2023-11-19T08:39:43;49.22;48.16;50.27;;
17594;Laerm;8916;47.086;15.920;2023-11-19T08:42:12;49.16;48.12;50.32;;
17594;Laerm;8916;47.086;15.920;2023-11-19T08:44:41;49.14;47.98;50.32;;
17594;Laerm;8916;47.086;15.920;2023-11-19T08:47:11;49.13;48.16;50.28;;
17594;Laerm;8916;47.086;15.920;2023-11-19T08:49:41;49.10;48.00;50.30;;
17594;Laerm;8916;47.086;15.920;2023-11-19T08:52:10;49.11;47.93;50.31;;
17594;Laerm;8916;47.086;15.920;2023-11-19T08:54:43;49.09;47.65;50.46;;
17594;Laerm;8916;47.086;15.920;2023-11-19T08:57:12;49.10;47.93;50.27;;
17594;Laerm;8916;47.086;15.920;2023-11-19T08:59:42;49.12;47.98;50.31;;
17594;Laerm;8916;47.086;15.920;2023-11-19T09:02:13;49.15;47.96;50.37;;
17594;Laerm;8916;47.086;15.920;2023-11-19T09:04:42;49.18;48.13;50.36;;
17594;Laerm;8916;47.086;15.920;2023-11-19T09:07:12;49.18;48.18;50.40;;
17594;Laerm;8916;47.086;15.920;2023-11-19T09:09:43;49.17;48.02;50.31;;
17594;Laerm;8916;47.086;15.920;2023-11-19T09:12:13;49.17;47.90;50.31;;
17594;Laerm;8916;47.086;15.920;2023-11-19T09:14:43;49.19;48.05;50.55;;
17594;Laerm;8916;47.086;15.920;2023-11-19T09:17:13;49.21;48.02;50.36;;
17594;Laerm;8916;47.086;15.920;2023-11-19T09:19:44;49.21;48.12;50.32;;
17594;Laerm;8916;47.086;15.920;2023-11-19T09:22:14;49.22;48.13;50.22;;
17594;Laerm;8916;47.086;15.920;2023-11-19T09:24:45;49.21;48.18;50.40;;
17594;Laerm;8916;47.086;15.920;2023-11-19T09:27:16;49.21;48.10;50.37;;
17594;Laerm;8916;47.086;15.920;2023-11-19T09:29:45;49.22;48.12;50.43;;
17594;Laerm;8916;47.086;15.920;2023-11-19T09:32:17;49.21;48.05;50.24;;
17594;Laerm;8916;47.086;15.920;2023-11-19T09:34:46;49.21;48.07;50.40;;
17594;Laerm;8916;47.086;15.920;2023-11-19T09:37:15;49.20;48.13;50.26;;
17594;Laerm;8916;47.086;15.920;2023-11-19T09:39:49;49.19;48.00;50.38;;
17594;Laerm;8916;47.086;15.920;2023-11-19T09:42:18;49.17;47.84;50.39;;
17594;Laerm;8916;47.086;15.920;2023-11-19T09:44:49;49.13;47.86;50.34;;
17594;Laerm;8916;47.086;15.920;2023-11-19T09:47:19;49.13;47.98;50.37;;
17594;Laerm;8916;47.086;15.920;2023-11-19T09:49:49;49.12;47.85;50.62;;
17594;Laerm;8916;47.086;15.920;2023-11-19T09:52:20;49.06;47.91;50.38;;
17594;Laerm;8916;47.086;15.920;2023-11-19T09:54:50;49.02;47.96;50.17;;
17594;Laerm;8916;47.086;15.920;2023-11-19T09:57:20;49.01;47.98;50.05;;
17594;Laerm;8916;47.086;15.920;2023-11-19T09:59:50;48.99;47.91;50.04;;
17594;Laerm;8916;47.086;15.920;2023-11-19T10:02:20;48.96;47.83;50.24;;
17594;Laerm;8916;47.086;15.920;2023-11-19T10:04:50;49.00;47.86;50.09;;
17594;Laerm;8916;47.086;15.920;2023-11-19T10:07:19;49.03;47.98;50.14;;
17594;Laerm;8916;47.086;15.920;2023-11-19T10:09:53;49.08;48.00;50.35;;
17594;Laerm;8916;47.086;15.920;2023-11-19T10:12:23;49.11;47.86;50.19;;
17594;Laerm;8916;47.086;15.920;2023-11-19T10:14:53;49.11;47.86;50.35;;
17594;Laerm;8916;47.086;15.920;2023-11-19T10:17:28;49.12;47.95;50.29;;
17594;Laerm;8916;47.086;15.920;2023-11-19T10:19:58;49.13;47.65;50.23;;
17594;Laerm;8916;47.086;15.920;2023-11-19T10:22:28;49.12;47.86;50.60;;
17594;Laerm;8916;47.086;15.920;2023-11-19T10:24:59;49.12;47.79;50.36;;
17594;Laerm;8916;47.086;15.920;2023-11-19T10:27:28;49.12;47.83;50.16;;
17594;Laerm;8916;47.086;15.920;2023-11-19T10:30:00;49.13;47.96;50.37;;
17594;Laerm;8916;47.086;15.920;2023-11-19T10:32:29;49.14;47.95;50.39;;
17594;Laerm;8916;47.086;15.920;2023-11-19T10:35:08;49.12;47.90;50.44;;
17594;Laerm;8916;47.086;15.920;2023-11-19T10:37:40;49.11;47.93;50.41;;
17594;Laerm;8916;47.086;15.920;2023-11-19T10:40:11;49.11;48.03;50.23;;
17594;Laerm;8916;47.086;15.920;2023-11-19T10:42:41;49.09;47.90;50.09;;
17594;Laerm;8916;47.086;15.920;2023-11-19T10:45:22;49.10;47.77;50.18;;
17594;Laerm;8916;47.086;15.920;2023-11-19T10:47:52;49.09;48.00;50.18;;
17594;Laerm;8916;47.086;15.920;2023-11-19T10:50:23;49.09;47.95;50.26;;
17594;Laerm;8916;47.086;15.920;2023-11-19T10:52:56;49.11;47.70;50.34;;
17594;Laerm;8916;47.086;15.920;2023-11-19T10:55:29;49.12;47.90;50.13;;
17594;Laerm;8916;47.086;15.920;2023-11-19T10:58:00;49.11;48.00;50.31;;
17594;Laerm;8916;47.086;15.920;2023-11-19T11:00:37;49.12;47.88;50.40;;
17594;Laerm;8916;47.086;15.920;2023-11-19T11:03:13;49.12;48.08;50.21;;
17594;Laerm;8916;47.086;15.920;2023-11-19T11:05:46;49.12;47.95;50.17;;
17594;Laerm;8916;47.086;15.920;2023-11-19T11:08:16;49.09;47.93;50.27;;
17594;Laerm;8916;47.086;15.920;2023-11-19T11:10:53;49.07;47.83;50.10;;
17594;Laerm;8916;47.086;15.920;2023-11-19T11:13:25;49.09;47.98;50.23;;
17594;Laerm;8916;47.086;15.920;2023-11-19T11:15:57;49.09;47.90;50.45;;
17594;Laerm;8916;47.086;15.920;2023-11-19T11:18:27;49.10;48.03;50.18;;
17594;Laerm;8916;47.086;15.920;2023-11-19T11:21:00;49.10;48.02;50.19;;
17594;Laerm;8916;47.086;15.920;2023-11-19T11:24:25;49.09;48.07;50.32;;
17594;Laerm;8916;47.086;15.920;2023-11-19T11:30:20;49.07;47.86;50.23;;
17594;Laerm;8916;47.086;15.920;2023-11-19T11:33:06;49.05;48.07;50.14;;
17594;Laerm;8916;47.086;15.920;2023-11-19T11:35:50;49.01;47.98;50.03;;
17594;Laerm;8916;47.086;15.920;2023-11-19T11:38:22;49.02;47.79;50.33;;
17594;Laerm;8916;47.086;15.920;2023-11-19T11:41:19;49.03;47.83;50.20;;
17594;Laerm;8916;47.086;15.920;2023-11-19T11:43:55;49.05;47.96;50.28;;
17594;Laerm;8916;47.086;15.920;2023-11-19T11:46:55;49.06;47.96;50.36;;
17594;Laerm;8916;47.086;15.920;2023-11-19T11:49:26;49.04;47.77;50.33;;
17594;Laerm;8916;47.086;15.920;2023-11-19T11:51:59;49.05;47.95;50.29;;
17594;Laerm;8916;47.086;15.920;2023-11-19T11:54:29;49.03;47.67;50.13;;
17594;Laerm;8916;47.086;15.920;2023-11-19T11:57:10;49.04;47.90;50.22;;
17594;Laerm;8916;47.086;15.920;2023-11-19T11:59:49;49.03;47.86;50.22;;
17594;Laerm;8916;47.086;15.920;2023-11-19T12:02:20;48.99;47.59;50.34;;
17594;Laerm;8916;47.086;15.920;2023-11-19T12:04:51;49.01;47.90;50.50;;
17594;Laerm;8916;47.086;15.920;2023-11-19T12:07:23;49.02;47.87;50.22;;
17594;Laerm;8916;47.086;15.920;2023-11-19T12:10:05;49.01;47.83;50.25;;
17594;Laerm;8916;47.086;15.920;2023-11-19T12:12:36;49.00;48.02;50.13;;
17594;Laerm;8916;47.086;15.920;2023-11-19T12:15:09;49.00;47.88;50.10;;
17594;Laerm;8916;47.086;15.920;2023-11-19T12:17:57;48.96;47.91;50.25;;
17594;Laerm;8916;47.086;15.920;2023-11-19T12:20:26;48.99;48.03;50.04;;
17594;Laerm;8916;47.086;15.920;2023-11-19T12:23:04;49.02;48.00;50.34;;
17594;Laerm;8916;47.086;15.920;2023-11-19T12:25:35;49.02;47.96;50.19;;
17594;Laerm;8916;47.086;15.920;2023-11-19T12:28:05;49.00;47.88;50.40;;
17594;Laerm;8916;47.086;15.920;2023-11-19T12:30:35;48.99;47.74;50.13;;
17594;Laerm;8916;47.086;15.920;2023-11-19T12:33:08;48.95;47.98;50.14;;
17594;Laerm;8916;47.086;15.920;2023-11-19T12:35:39;48.90;47.70;50.12;;
17594;Laerm;8916;47.086;15.920;2023-11-19T12:38:17;48.89;47.91;49.92;;
17594;Laerm;8916;47.086;15.920;2023-11-19T12:40:47;48.88;47.84;50.12;;
17594;Laerm;8916;47.086;15.920;2023-11-19T12:43:21;48.88;47.40;50.03;;
17594;Laerm;8916;47.086;15.920;2023-11-19T12:45:52;48.89;47.77;50.28;;
17594;Laerm;8916;47.086;15.920;2023-11-19T12:48:21;48.88;47.68;50.02;;
17594;Laerm;8916;47.086;15.920;2023-11-19T12:50:51;48.90;47.57;50.08;;
17594;Laerm;8916;47.086;15.920;2023-11-19T12:53:21;48.92;47.90;50.04;;
17594;Laerm;8916;47.086;15.920;2023-11-19T12:55:53;48.92;47.57;50.10;;
17594;Laerm;8916;47.086;15.920;2023-11-19T12:58:31;48.94;47.65;50.21;;
17594;Laerm;8916;47.086;15.920;2023-11-19T13:01:03;48.97;47.84;50.13;;
17594;Laerm;8916;47.086;15.920;2023-11-19T13:03:34;48.95;47.70;50.32;;
17594;Laerm;8916;47.086;15.920;2023-11-19T13:06:05;48.90;47.72;50.10;;
17594;Laerm;8916;47.086;15.920;2023-11-19T13:08:37;48.88;47.79;50.20;;
17594;Laerm;8916;47.086;15.920;2023-11-19T13:11:07;48.84;47.68;49.90;;
17594;Laerm;8916;47.086;15.920;2023-11-19T13:13:56;48.84;47.63;50.01;;
17594;Laerm;8916;47.086;15.920;2023-11-19T13:16:28;48.85;47.83;49.92;;
17594;Laerm;8916;47.086;15.920;2023-11-19T13:18:58;48.87;47.81;50.18;;
17594;Laerm;8916;47.086;15.920;2023-11-19T13:21:28;48.90;47.79;50.08;;
17594;Laerm;8916;47.086;15.920;2023-11-19T13:23:57;48.87;47.74;50.19;;
17594;Laerm;8916;47.086;15.920;2023-11-19T13:26:26;48.85;47.76;50.06;;
17594;Laerm;8916;47.086;15.920;2023-11-19T13:28:55;48.84;47.77;50.05;;
17594;Laerm;8916;47.086;15.920;2023-11-19T13:31:27;48.83;47.79;50.08;;
17594;Laerm;8916;47.086;15.920;2023-11-19T13:33:56;48.84;47.68;49.88;;
17594;Laerm;8916;47.086;15.920;2023-11-19T13:36:26;48.82;47.76;49.94;;
17594;Laerm;8916;47.086;15.920;2023-11-19T13:38:55;48.83;47.86;49.96;;
17594;Laerm;8916;47.086;15.920;2023-11-19T13:41:27;48.86;47.72;50.10;;
17594;Laerm;8916;47.086;15.920;2023-11-19T13:43:56;48.88;47.74;50.06;;
17594;Laerm;8916;47.086;15.920;2023-11-19T13:46:27;48.86;47.68;50.23;;
17594;Laerm;8916;47.086;15.920;2023-11-19T13:48:57;48.86;47.77;49.96;;
17594;Laerm;8916;47.086;15.920;2023-11-19T13:51:26;48.83;47.44;50.05;;
17594;Laerm;8916;47.086;15.920;2023-11-19T13:53:55;48.83;47.67;49.97;;
17594;Laerm;8916;47.086;15.920;2023-11-19T13:56:25;48.81;47.72;49.98;;
17594;Laerm;8916;47.086;15.920;2023-11-19T13:58:54;48.78;47.65;50.01;;
17594;Laerm;8916;47.086;15.920;2023-11-19T14:01:23;48.79;47.55;50.03;;
17594;Laerm;8916;47.086;15.920;2023-11-19T14:03:54;48.81;47.55;50.09;;
17594;Laerm;8916;47.086;15.920;2023-11-19T14:06:24;48.81;47.77;50.05;;
17594;Laerm;8916;47.086;15.920;2023-11-19T14:08:53;48.76;47.57;49.91;;